sensor_id;sensor_type;location;lat;lon;timestamp;P1;durP1;ratioP1;P2;durP2;ratioP2
17382;SDS011;8809;51.892;8.384;2023-06-10T00:00:05;3.40;;;3.10;;
17382;SDS011;8809;51.892;8.384;2023-06-10T00:02:33;3.70;;;3.40;;
17382;SDS011;8809;51.892;8.384;2023-06-10T00:05:02;4.72;;;3.95;;
17382;SDS011;8809;51.892;8.384;2023-06-10T00:07:30;3.88;;;3.17;;
17382;SDS011;8809;51.892;8.384;2023-06-10T00:09:57;3.85;;;3.50;;
17382;SDS011;8809;51.892;8.384;2023-06-10T00:12:27;4.20;;;3.80;;
17382;SDS011;8809;51.892;8.384;2023-06-10T00:14:57;3.55;;;3.25;;
17382;SDS011;8809;51.892;8.384;2023-06-10T00:17:25;3.75;;;3.35;;
17382;SDS011;8809;51.892;8.384;2023-06-10T00:19:54;4.55;;;3.30;;
17382;SDS011;8809;51.892;8.384;2023-06-10T00:22:24;3.38;;;2.97;;
17382;SDS011;8809;51.892;8.384;2023-06-10T00:24:54;4.05;;;3.47;;
17382;SDS011;8809;51.892;8.384;2023-06-10T00:27:22;3.70;;;3.25;;
17382;SDS011;8809;51.892;8.384;2023-06-10T00:29:49;3.10;;;2.80;;
17382;SDS011;8809;51.892;8.384;2023-06-10T00:32:18;3.30;;;3.00;;
17382;SDS011;8809;51.892;8.384;2023-06-10T00:34:45;3.50;;;3.20;;
17382;SDS011;8809;51.892;8.384;2023-06-10T00:37:12;3.88;;;3.15;;
17382;SDS011;8809;51.892;8.384;2023-06-10T00:39:39;2.97;;;2.67;;
17382;SDS011;8809;51.892;8.384;2023-06-10T00:42:06;3.80;;;3.13;;
17382;SDS011;8809;51.892;8.384;2023-06-10T00:44:36;4.07;;;3.42;;
17382;SDS011;8809;51.892;8.384;2023-06-10T00:47:03;4.13;;;3.13;;
17382;SDS011;8809;51.892;8.384;2023-06-10T00:49:32;4.00;;;3.30;;
17382;SDS011;8809;51.892;8.384;2023-06-10T00:52:00;3.53;;;3.22;;
17382;SDS011;8809;51.892;8.384;2023-06-10T00:54:28;3.78;;;3.28;;
17382;SDS011;8809;51.892;8.384;2023-06-10T00:56:55;3.53;;;3.22;;
17382;SDS011;8809;51.892;8.384;2023-06-10T00:59:23;3.92;;;3.30;;
17382;SDS011;8809;51.892;8.384;2023-06-10T01:01:50;3.67;;;3.05;;
17382;SDS011;8809;51.892;8.384;2023-06-10T01:04:17;4.20;;;3.42;;
17382;SDS011;8809;51.892;8.384;2023-06-10T01:06:50;3.40;;;3.10;;
17382;SDS011;8809;51.892;8.384;2023-06-10T01:09:24;3.95;;;3.05;;
17382;SDS011;8809;51.892;8.384;2023-06-10T01:12:01;3.38;;;3.08;;
17382;SDS011;8809;51.892;8.384;2023-06-10T01:14:36;4.88;;;3.20;;
17382;SDS011;8809;51.892;8.384;2023-06-10T01:17:10;3.88;;;3.28;;
17382;SDS011;8809;51.892;8.384;2023-06-10T01:19:52;4.55;;;3.35;;
17382;SDS011;8809;51.892;8.384;2023-06-10T01:22:23;3.78;;;3.10;;
17382;SDS011;8809;51.892;8.384;2023-06-10T01:24:51;3.40;;;2.95;;
17382;SDS011;8809;51.892;8.384;2023-06-10T01:27:19;3.85;;;3.08;;
17382;SDS011;8809;51.892;8.384;2023-06-10T01:29:50;3.58;;;2.90;;
17382;SDS011;8809;51.892;8.384;2023-06-10T01:32:26;4.35;;;3.45;;
17382;SDS011;8809;51.892;8.384;2023-06-10T01:34:59;4.43;;;3.30;;
17382;SDS011;8809;51.892;8.384;2023-06-10T01:37:29;4.28;;;3.50;;
17382;SDS011;8809;51.892;8.384;2023-06-10T01:39:58;4.03;;;3.58;;
17382;SDS011;8809;51.892;8.384;2023-06-10T01:42:26;4.05;;;3.53;;
17382;SDS011;8809;51.892;8.384;2023-06-10T01:44:55;3.83;;;3.30;;
17382;SDS011;8809;51.892;8.384;2023-06-10T01:47:22;4.35;;;3.75;;
17382;SDS011;8809;51.892;8.384;2023-06-10T01:49:49;4.30;;;3.47;;
17382;SDS011;8809;51.892;8.384;2023-06-10T01:52:17;4.38;;;3.80;;
17382;SDS011;8809;51.892;8.384;2023-06-10T01:54:46;4.05;;;3.60;;
17382;SDS011;8809;51.892;8.384;2023-06-10T01:57:13;4.65;;;3.53;;
17382;SDS011;8809;51.892;8.384;2023-06-10T01:59:40;3.67;;;3.30;;
17382;SDS011;8809;51.892;8.384;2023-06-10T02:02:10;4.78;;;3.60;;
17382;SDS011;8809;51.892;8.384;2023-06-10T02:04:37;3.58;;;3.00;;
17382;SDS011;8809;51.892;8.384;2023-06-10T02:07:04;3.60;;;3.30;;
17382;SDS011;8809;51.892;8.384;2023-06-10T02:09:32;4.72;;;3.40;;
17382;SDS011;8809;51.892;8.384;2023-06-10T02:12:02;4.05;;;3.55;;
17382;SDS011;8809;51.892;8.384;2023-06-10T02:14:31;3.50;;;3.15;;
17382;SDS011;8809;51.892;8.384;2023-06-10T02:19:35;4.47;;;3.80;;
17382;SDS011;8809;51.892;8.384;2023-06-10T02:22:03;4.63;;;3.28;;
17382;SDS011;8809;51.892;8.384;2023-06-10T02:24:31;4.55;;;3.65;;
17382;SDS011;8809;51.892;8.384;2023-06-10T02:26:59;4.07;;;3.50;;
17382;SDS011;8809;51.892;8.384;2023-06-10T02:29:28;3.50;;;3.05;;
17382;SDS011;8809;51.892;8.384;2023-06-10T02:31:55;3.85;;;2.97;;
17382;SDS011;8809;51.892;8.384;2023-06-10T02:34:22;3.20;;;2.90;;
17382;SDS011;8809;51.892;8.384;2023-06-10T02:36:49;3.30;;;3.00;;
17382;SDS011;8809;51.892;8.384;2023-06-10T02:39:16;3.30;;;2.97;;
17382;SDS011;8809;51.892;8.384;2023-06-10T02:41:43;3.53;;;3.08;;
17382;SDS011;8809;51.892;8.384;2023-06-10T02:44:10;4.00;;;3.05;;
17382;SDS011;8809;51.892;8.384;2023-06-10T02:46:39;3.20;;;2.75;;
17382;SDS011;8809;51.892;8.384;2023-06-10T02:49:07;3.83;;;2.97;;
17382;SDS011;8809;51.892;8.384;2023-06-10T02:51:34;4.32;;;3.00;;
17382;SDS011;8809;51.892;8.384;2023-06-10T02:54:03;2.75;;;2.47;;
17382;SDS011;8809;51.892;8.384;2023-06-10T02:56:30;3.15;;;2.85;;
17382;SDS011;8809;51.892;8.384;2023-06-10T02:58:58;3.42;;;2.63;;
17382;SDS011;8809;51.892;8.384;2023-06-10T03:01:26;3.95;;;3.45;;
17382;SDS011;8809;51.892;8.384;2023-06-10T03:03:54;3.38;;;2.63;;
17382;SDS011;8809;51.892;8.384;2023-06-10T03:06:23;3.53;;;2.65;;
17382;SDS011;8809;51.892;8.384;2023-06-10T03:08:51;3.90;;;2.90;;
17382;SDS011;8809;51.892;8.384;2023-06-10T03:11:18;4.05;;;2.83;;
17382;SDS011;8809;51.892;8.384;2023-06-10T03:13:45;4.18;;;2.65;;
17382;SDS011;8809;51.892;8.384;2023-06-10T03:16:13;3.10;;;2.70;;
17382;SDS011;8809;51.892;8.384;2023-06-10T03:18:41;3.97;;;2.72;;
17382;SDS011;8809;51.892;8.384;2023-06-10T03:21:10;2.80;;;2.50;;
17382;SDS011;8809;51.892;8.384;2023-06-10T03:23:38;3.13;;;2.40;;
17382;SDS011;8809;51.892;8.384;2023-06-10T03:26:05;3.10;;;2.58;;
17382;SDS011;8809;51.892;8.384;2023-06-10T03:28:33;3.15;;;2.47;;
17382;SDS011;8809;51.892;8.384;2023-06-10T03:31:00;3.58;;;2.70;;
17382;SDS011;8809;51.892;8.384;2023-06-10T03:33:27;3.08;;;2.50;;
17382;SDS011;8809;51.892;8.384;2023-06-10T03:35:55;2.38;;;2.15;;
17382;SDS011;8809;51.892;8.384;2023-06-10T03:38:24;2.50;;;2.13;;
17382;SDS011;8809;51.892;8.384;2023-06-10T03:40:52;3.13;;;2.65;;
17382;SDS011;8809;51.892;8.384;2023-06-10T03:43:19;3.35;;;2.45;;
17382;SDS011;8809;51.892;8.384;2023-06-10T03:45:47;3.13;;;2.40;;
17382;SDS011;8809;51.892;8.384;2023-06-10T03:48:14;3.97;;;2.65;;
17382;SDS011;8809;51.892;8.384;2023-06-10T03:50:42;4.20;;;2.65;;
17382;SDS011;8809;51.892;8.384;2023-06-10T03:53:09;4.10;;;2.75;;
17382;SDS011;8809;51.892;8.384;2023-06-10T03:55:40;2.78;;;2.45;;
17382;SDS011;8809;51.892;8.384;2023-06-10T03:58:09;2.72;;;2.40;;
17382;SDS011;8809;51.892;8.384;2023-06-10T04:00:38;3.10;;;2.40;;
17382;SDS011;8809;51.892;8.384;2023-06-10T04:03:07;3.05;;;2.38;;
17382;SDS011;8809;51.892;8.384;2023-06-10T04:05:39;3.55;;;2.53;;
17382;SDS011;8809;51.892;8.384;2023-06-10T04:08:07;3.92;;;2.50;;
17382;SDS011;8809;51.892;8.384;2023-06-10T04:10:35;3.30;;;2.55;;
17382;SDS011;8809;51.892;8.384;2023-06-10T04:13:03;2.58;;;2.30;;
17382;SDS011;8809;51.892;8.384;2023-06-10T04:15:30;2.72;;;2.08;;
17382;SDS011;8809;51.892;8.384;2023-06-10T04:17:59;2.78;;;2.00;;
17382;SDS011;8809;51.892;8.384;2023-06-10T04:20:26;2.42;;;1.92;;
17382;SDS011;8809;51.892;8.384;2023-06-10T04:22:53;3.00;;;2.25;;
17382;SDS011;8809;51.892;8.384;2023-06-10T04:25:20;2.28;;;1.90;;
17382;SDS011;8809;51.892;8.384;2023-06-10T04:27:48;2.78;;;2.30;;
17382;SDS011;8809;51.892;8.384;2023-06-10T04:30:17;2.63;;;2.03;;
17382;SDS011;8809;51.892;8.384;2023-06-10T04:32:44;2.25;;;1.98;;
17382;SDS011;8809;51.892;8.384;2023-06-10T04:35:12;2.58;;;1.88;;
17382;SDS011;8809;51.892;8.384;2023-06-10T04:37:39;2.55;;;1.90;;
17382;SDS011;8809;51.892;8.384;2023-06-10T04:40:07;2.42;;;2.03;;
17382;SDS011;8809;51.892;8.384;2023-06-10T04:42:35;2.55;;;2.05;;
17382;SDS011;8809;51.892;8.384;2023-06-10T04:45:02;1.67;;;1.50;;
17382;SDS011;8809;51.892;8.384;2023-06-10T04:47:31;1.92;;;1.75;;
17382;SDS011;8809;51.892;8.384;2023-06-10T04:49:59;2.17;;;1.85;;
17382;SDS011;8809;51.892;8.384;2023-06-10T04:52:26;2.13;;;1.60;;
17382;SDS011;8809;51.892;8.384;2023-06-10T04:54:53;1.85;;;1.70;;
17382;SDS011;8809;51.892;8.384;2023-06-10T04:57:20;1.85;;;1.60;;
17382;SDS011;8809;51.892;8.384;2023-06-10T04:59:47;1.98;;;1.77;;
17382;SDS011;8809;51.892;8.384;2023-06-10T05:02:14;2.00;;;1.80;;
17382;SDS011;8809;51.892;8.384;2023-06-10T05:04:43;2.05;;;1.70;;
17382;SDS011;8809;51.892;8.384;2023-06-10T05:07:10;2.25;;;1.92;;
17382;SDS011;8809;51.892;8.384;2023-06-10T05:09:37;1.83;;;1.60;;
17382;SDS011;8809;51.892;8.384;2023-06-10T05:12:05;1.98;;;1.60;;
17382;SDS011;8809;51.892;8.384;2023-06-10T05:14:32;2.03;;;1.52;;
17382;SDS011;8809;51.892;8.384;2023-06-10T05:16:59;1.88;;;1.67;;
17382;SDS011;8809;51.892;8.384;2023-06-10T05:19:27;1.88;;;1.42;;
17382;SDS011;8809;51.892;8.384;2023-06-10T05:21:55;1.90;;;1.50;;
17382;SDS011;8809;51.892;8.384;2023-06-10T05:24:23;2.72;;;2.00;;
17382;SDS011;8809;51.892;8.384;2023-06-10T05:26:50;2.05;;;1.67;;
17382;SDS011;8809;51.892;8.384;2023-06-10T05:29:17;1.75;;;1.65;;
17382;SDS011;8809;51.892;8.384;2023-06-10T05:31:45;2.20;;;1.85;;
17382;SDS011;8809;51.892;8.384;2023-06-10T05:34:12;2.00;;;1.63;;
17382;SDS011;8809;51.892;8.384;2023-06-10T05:36:39;1.80;;;1.70;;
17382;SDS011;8809;51.892;8.384;2023-06-10T05:39:09;1.80;;;1.50;;
17382;SDS011;8809;51.892;8.384;2023-06-10T05:41:36;1.50;;;1.40;;
17382;SDS011;8809;51.892;8.384;2023-06-10T05:44:03;2.00;;;1.33;;
17382;SDS011;8809;51.892;8.384;2023-06-10T05:46:33;1.58;;;1.35;;
17382;SDS011;8809;51.892;8.384;2023-06-10T05:49:00;1.80;;;1.58;;
17382;SDS011;8809;51.892;8.384;2023-06-10T05:51:28;2.05;;;1.80;;
17382;SDS011;8809;51.892;8.384;2023-06-10T05:53:55;2.40;;;1.88;;
17382;SDS011;8809;51.892;8.384;2023-06-10T05:56:23;1.88;;;1.70;;
17382;SDS011;8809;51.892;8.384;2023-06-10T05:58:58;1.63;;;1.50;;
17382;SDS011;8809;51.892;8.384;2023-06-10T06:01:25;2.05;;;1.70;;
17382;SDS011;8809;51.892;8.384;2023-06-10T06:03:53;1.60;;;1.50;;
17382;SDS011;8809;51.892;8.384;2023-06-10T06:06:20;1.77;;;1.38;;
17382;SDS011;8809;51.892;8.384;2023-06-10T06:08:47;2.20;;;1.80;;
17382;SDS011;8809;51.892;8.384;2023-06-10T06:11:14;1.65;;;1.40;;
17382;SDS011;8809;51.892;8.384;2023-06-10T06:13:43;2.25;;;1.60;;
17382;SDS011;8809;51.892;8.384;2023-06-10T06:16:10;1.58;;;1.35;;
17382;SDS011;8809;51.892;8.384;2023-06-10T06:18:38;1.40;;;1.30;;
17382;SDS011;8809;51.892;8.384;2023-06-10T06:21:05;2.10;;;1.50;;
17382;SDS011;8809;51.892;8.384;2023-06-10T06:23:32;1.80;;;1.42;;
17382;SDS011;8809;51.892;8.384;2023-06-10T06:25:59;1.65;;;1.50;;
17382;SDS011;8809;51.892;8.384;2023-06-10T06:28:27;1.45;;;1.33;;
17382;SDS011;8809;51.892;8.384;2023-06-10T06:30:56;1.70;;;1.30;;
17382;SDS011;8809;51.892;8.384;2023-06-10T06:33:23;1.52;;;1.30;;
17382;SDS011;8809;51.892;8.384;2023-06-10T06:35:51;1.42;;;1.33;;
17382;SDS011;8809;51.892;8.384;2023-06-10T06:38:19;1.63;;;1.38;;
17382;SDS011;8809;51.892;8.384;2023-06-10T06:43:48;2.03;;;1.40;;
17382;SDS011;8809;51.892;8.384;2023-06-10T06:46:17;1.70;;;1.30;;
17382;SDS011;8809;51.892;8.384;2023-06-10T06:48:44;2.05;;;1.50;;
17382;SDS011;8809;51.892;8.384;2023-06-10T06:51:12;1.65;;;1.30;;
17382;SDS011;8809;51.892;8.384;2023-06-10T06:53:40;1.85;;;1.40;;
17382;SDS011;8809;51.892;8.384;2023-06-10T06:56:10;1.80;;;1.50;;
17382;SDS011;8809;51.892;8.384;2023-06-10T06:58:37;1.58;;;1.48;;
17382;SDS011;8809;51.892;8.384;2023-06-10T07:01:05;1.70;;;1.40;;
17382;SDS011;8809;51.892;8.384;2023-06-10T07:03:33;1.52;;;1.42;;
17382;SDS011;8809;51.892;8.384;2023-06-10T07:06:00;1.60;;;1.50;;
17382;SDS011;8809;51.892;8.384;2023-06-10T07:08:27;1.40;;;1.30;;
17382;SDS011;8809;51.892;8.384;2023-06-10T07:10:54;1.70;;;1.50;;
17382;SDS011;8809;51.892;8.384;2023-06-10T07:13:21;2.38;;;1.60;;
17382;SDS011;8809;51.892;8.384;2023-06-10T07:15:48;1.33;;;1.17;;
17382;SDS011;8809;51.892;8.384;2023-06-10T07:18:15;2.47;;;2.00;;
17382;SDS011;8809;51.892;8.384;2023-06-10T07:20:44;2.13;;;1.85;;
17382;SDS011;8809;51.892;8.384;2023-06-10T07:23:11;1.75;;;1.40;;
17382;SDS011;8809;51.892;8.384;2023-06-10T07:25:38;2.30;;;1.70;;
17382;SDS011;8809;51.892;8.384;2023-06-10T07:28:06;1.70;;;1.50;;
17382;SDS011;8809;51.892;8.384;2023-06-10T07:30:33;2.15;;;1.65;;
17382;SDS011;8809;51.892;8.384;2023-06-10T07:33:00;2.05;;;1.60;;
17382;SDS011;8809;51.892;8.384;2023-06-10T07:35:27;2.28;;;1.77;;
17382;SDS011;8809;51.892;8.384;2023-06-10T07:37:55;1.90;;;1.70;;
17382;SDS011;8809;51.892;8.384;2023-06-10T07:40:23;1.83;;;1.67;;
17382;SDS011;8809;51.892;8.384;2023-06-10T07:42:50;2.22;;;1.65;;
17382;SDS011;8809;51.892;8.384;2023-06-10T07:45:18;2.03;;;1.70;;
17382;SDS011;8809;51.892;8.384;2023-06-10T07:47:45;2.10;;;1.50;;
17382;SDS011;8809;51.892;8.384;2023-06-10T07:50:12;1.98;;;1.45;;
17382;SDS011;8809;51.892;8.384;2023-06-10T07:52:39;1.90;;;1.70;;
17382;SDS011;8809;51.892;8.384;2023-06-10T07:55:08;2.25;;;1.70;;
17382;SDS011;8809;51.892;8.384;2023-06-10T07:57:35;2.60;;;2.00;;
17382;SDS011;8809;51.892;8.384;2023-06-10T08:00:04;1.67;;;1.58;;
17382;SDS011;8809;51.892;8.384;2023-06-10T08:02:35;2.05;;;1.85;;
17382;SDS011;8809;51.892;8.384;2023-06-10T08:05:03;1.73;;;1.60;;
17382;SDS011;8809;51.892;8.384;2023-06-10T08:07:31;1.90;;;1.70;;
17382;SDS011;8809;51.892;8.384;2023-06-10T08:09:58;1.67;;;1.50;;
17382;SDS011;8809;51.892;8.384;2023-06-10T08:12:26;2.03;;;1.52;;
17382;SDS011;8809;51.892;8.384;2023-06-10T08:14:53;3.08;;;1.90;;
17382;SDS011;8809;51.892;8.384;2023-06-10T08:17:20;2.72;;;1.50;;
17382;SDS011;8809;51.892;8.384;2023-06-10T08:19:48;2.38;;;1.60;;
17382;SDS011;8809;51.892;8.384;2023-06-10T08:22:14;1.90;;;1.55;;
17382;SDS011;8809;51.892;8.384;2023-06-10T08:24:41;2.83;;;2.17;;
17382;SDS011;8809;51.892;8.384;2023-06-10T08:27:08;1.73;;;1.60;;
17382;SDS011;8809;51.892;8.384;2023-06-10T08:29:37;1.45;;;1.35;;
17382;SDS011;8809;51.892;8.384;2023-06-10T08:32:05;2.10;;;1.80;;
17382;SDS011;8809;51.892;8.384;2023-06-10T08:34:33;2.05;;;1.85;;
17382;SDS011;8809;51.892;8.384;2023-06-10T08:37:02;2.05;;;1.70;;
17382;SDS011;8809;51.892;8.384;2023-06-10T08:39:29;2.05;;;1.60;;
17382;SDS011;8809;51.892;8.384;2023-06-10T08:42:03;2.40;;;1.90;;
17382;SDS011;8809;51.892;8.384;2023-06-10T08:44:43;4.00;;;2.10;;
17382;SDS011;8809;51.892;8.384;2023-06-10T08:47:13;2.83;;;1.90;;
17382;SDS011;8809;51.892;8.384;2023-06-10T08:49:41;3.78;;;2.70;;
17382;SDS011;8809;51.892;8.384;2023-06-10T08:52:11;2.60;;;2.10;;
17382;SDS011;8809;51.892;8.384;2023-06-10T08:54:42;3.65;;;2.30;;
17382;SDS011;8809;51.892;8.384;2023-06-10T08:57:13;2.47;;;2.00;;
17382;SDS011;8809;51.892;8.384;2023-06-10T08:59:41;2.88;;;2.10;;
17382;SDS011;8809;51.892;8.384;2023-06-10T09:02:10;2.50;;;1.90;;
17382;SDS011;8809;51.892;8.384;2023-06-10T09:04:38;2.00;;;1.80;;
17382;SDS011;8809;51.892;8.384;2023-06-10T09:07:06;2.55;;;2.00;;
17382;SDS011;8809;51.892;8.384;2023-06-10T09:09:33;1.92;;;1.73;;
17382;SDS011;8809;51.892;8.384;2023-06-10T09:12:02;3.03;;;2.20;;
17382;SDS011;8809;51.892;8.384;2023-06-10T09:14:30;1.77;;;1.65;;
17382;SDS011;8809;51.892;8.384;2023-06-10T09:16:57;2.30;;;2.10;;
17382;SDS011;8809;51.892;8.384;2023-06-10T09:19:25;2.38;;;2.10;;
17382;SDS011;8809;51.892;8.384;2023-06-10T09:21:54;3.13;;;2.28;;
17382;SDS011;8809;51.892;8.384;2023-06-10T09:24:21;2.42;;;2.08;;
17382;SDS011;8809;51.892;8.384;2023-06-10T09:26:49;2.45;;;2.17;;
17382;SDS011;8809;51.892;8.384;2023-06-10T09:29:16;2.60;;;2.17;;
17382;SDS011;8809;51.892;8.384;2023-06-10T09:31:44;2.33;;;2.00;;
17382;SDS011;8809;51.892;8.384;2023-06-10T09:34:12;2.47;;;2.28;;
17382;SDS011;8809;51.892;8.384;2023-06-10T09:36:42;2.78;;;2.03;;
17382;SDS011;8809;51.892;8.384;2023-06-10T09:39:13;2.55;;;2.20;;
17382;SDS011;8809;51.892;8.384;2023-06-10T09:41:41;2.50;;;2.30;;
17382;SDS011;8809;51.892;8.384;2023-06-10T09:44:11;3.00;;;2.33;;
17382;SDS011;8809;51.892;8.384;2023-06-10T09:46:39;2.60;;;2.20;;
17382;SDS011;8809;51.892;8.384;2023-06-10T09:49:07;2.90;;;2.30;;
17382;SDS011;8809;51.892;8.384;2023-06-10T09:51:35;4.07;;;2.33;;
17382;SDS011;8809;51.892;8.384;2023-06-10T09:54:03;2.13;;;1.92;;
17382;SDS011;8809;51.892;8.384;2023-06-10T09:56:33;3.10;;;2.47;;
17382;SDS011;8809;51.892;8.384;2023-06-10T09:59:02;2.50;;;2.30;;
17382;SDS011;8809;51.892;8.384;2023-06-10T10:01:31;3.15;;;2.70;;
17382;SDS011;8809;51.892;8.384;2023-06-10T10:03:59;3.33;;;2.63;;
17382;SDS011;8809;51.892;8.384;2023-06-10T10:06:27;2.60;;;2.40;;
17382;SDS011;8809;51.892;8.384;2023-06-10T10:08:54;3.47;;;2.22;;
17382;SDS011;8809;51.892;8.384;2023-06-10T10:11:23;2.50;;;2.28;;
17382;SDS011;8809;51.892;8.384;2023-06-10T10:13:53;2.60;;;2.40;;
17382;SDS011;8809;51.892;8.384;2023-06-10T10:16:21;2.50;;;2.10;;
17382;SDS011;8809;51.892;8.384;2023-06-10T10:18:54;2.70;;;2.30;;
17382;SDS011;8809;51.892;8.384;2023-06-10T10:21:23;2.95;;;2.63;;
17382;SDS011;8809;51.892;8.384;2023-06-10T10:23:53;2.53;;;2.05;;
17382;SDS011;8809;51.892;8.384;2023-06-10T10:26:29;2.95;;;2.65;;
17382;SDS011;8809;51.892;8.384;2023-06-10T10:29:02;2.97;;;2.60;;
17382;SDS011;8809;51.892;8.384;2023-06-10T10:31:37;2.92;;;2.67;;
17382;SDS011;8809;51.892;8.384;2023-06-10T10:34:06;3.55;;;2.97;;
17382;SDS011;8809;51.892;8.384;2023-06-10T10:36:35;2.97;;;2.65;;
17382;SDS011;8809;51.892;8.384;2023-06-10T10:39:04;2.72;;;2.53;;
17382;SDS011;8809;51.892;8.384;2023-06-10T10:41:33;3.40;;;2.67;;
17382;SDS011;8809;51.892;8.384;2023-06-10T10:44:03;2.63;;;2.42;;
17382;SDS011;8809;51.892;8.384;2023-06-10T10:46:41;2.80;;;2.50;;
17382;SDS011;8809;51.892;8.384;2023-06-10T10:49:08;2.92;;;2.63;;
17382;SDS011;8809;51.892;8.384;2023-06-10T10:51:37;2.50;;;2.30;;
17382;SDS011;8809;51.892;8.384;2023-06-10T10:54:09;3.22;;;2.33;;
17382;SDS011;8809;51.892;8.384;2023-06-10T10:56:39;2.40;;;2.00;;
17382;SDS011;8809;51.892;8.384;2023-06-10T10:59:06;3.33;;;2.55;;
17382;SDS011;8809;51.892;8.384;2023-06-10T11:01:41;2.92;;;2.65;;
17382;SDS011;8809;51.892;8.384;2023-06-10T11:04:12;3.13;;;2.88;;
17382;SDS011;8809;51.892;8.384;2023-06-10T11:06:39;2.92;;;2.60;;
17382;SDS011;8809;51.892;8.384;2023-06-10T11:09:25;2.60;;;2.40;;
17382;SDS011;8809;51.892;8.384;2023-06-10T11:11:55;3.25;;;2.78;;
17382;SDS011;8809;51.892;8.384;2023-06-10T11:14:26;3.08;;;2.47;;
17382;SDS011;8809;51.892;8.384;2023-06-10T11:16:56;3.08;;;2.47;;
17382;SDS011;8809;51.892;8.384;2023-06-10T11:19:33;2.97;;;2.20;;
17382;SDS011;8809;51.892;8.384;2023-06-10T11:22:01;2.88;;;2.60;;
17382;SDS011;8809;51.892;8.384;2023-06-10T11:24:30;3.20;;;2.50;;
17382;SDS011;8809;51.892;8.384;2023-06-10T11:29:57;2.80;;;2.55;;
17382;SDS011;8809;51.892;8.384;2023-06-10T11:32:25;3.97;;;2.63;;
17382;SDS011;8809;51.892;8.384;2023-06-10T11:34:57;3.92;;;2.47;;
17382;SDS011;8809;51.892;8.384;2023-06-10T11:37:24;2.90;;;2.60;;
17382;SDS011;8809;51.892;8.384;2023-06-10T11:39:52;3.22;;;2.60;;
17382;SDS011;8809;51.892;8.384;2023-06-10T11:42:20;3.45;;;2.70;;
17382;SDS011;8809;51.892;8.384;2023-06-10T11:44:49;2.80;;;2.60;;
17382;SDS011;8809;51.892;8.384;2023-06-10T11:47:17;3.33;;;2.67;;
17382;SDS011;8809;51.892;8.384;2023-06-10T11:49:45;4.60;;;2.95;;
17382;SDS011;8809;51.892;8.384;2023-06-10T11:52:13;3.30;;;2.60;;
17382;SDS011;8809;51.892;8.384;2023-06-10T11:54:40;3.10;;;2.80;;
17382;SDS011;8809;51.892;8.384;2023-06-10T11:57:07;2.80;;;2.60;;
17382;SDS011;8809;51.892;8.384;2023-06-10T11:59:35;2.60;;;2.40;;
17382;SDS011;8809;51.892;8.384;2023-06-10T12:02:15;3.22;;;2.42;;
17382;SDS011;8809;51.892;8.384;2023-06-10T12:04:43;3.08;;;2.50;;
17382;SDS011;8809;51.892;8.384;2023-06-10T12:07:16;3.17;;;2.60;;
17382;SDS011;8809;51.892;8.384;2023-06-10T12:09:44;3.47;;;2.97;;
17382;SDS011;8809;51.892;8.384;2023-06-10T12:12:16;2.95;;;2.58;;
17382;SDS011;8809;51.892;8.384;2023-06-10T12:14:51;5.65;;;3.40;;
17382;SDS011;8809;51.892;8.384;2023-06-10T12:17:23;4.22;;;3.13;;
17382;SDS011;8809;51.892;8.384;2023-06-10T12:20:03;5.43;;;3.58;;
17382;SDS011;8809;51.892;8.384;2023-06-10T12:22:38;3.97;;;3.03;;
17382;SDS011;8809;51.892;8.384;2023-06-10T12:25:07;3.25;;;2.90;;
17382;SDS011;8809;51.892;8.384;2023-06-10T12:27:35;3.00;;;2.70;;
17382;SDS011;8809;51.892;8.384;2023-06-10T12:30:03;3.28;;;2.70;;
17382;SDS011;8809;51.892;8.384;2023-06-10T12:32:36;2.53;;;2.33;;
17382;SDS011;8809;51.892;8.384;2023-06-10T12:35:05;3.88;;;3.00;;
17382;SDS011;8809;51.892;8.384;2023-06-10T12:37:34;3.20;;;2.90;;
17382;SDS011;8809;51.892;8.384;2023-06-10T12:40:02;3.55;;;3.00;;
17382;SDS011;8809;51.892;8.384;2023-06-10T12:42:31;2.88;;;2.67;;
17382;SDS011;8809;51.892;8.384;2023-06-10T12:45:00;3.30;;;3.00;;
17382;SDS011;8809;51.892;8.384;2023-06-10T12:47:31;2.65;;;2.45;;
17382;SDS011;8809;51.892;8.384;2023-06-10T12:50:01;3.00;;;2.80;;
17382;SDS011;8809;51.892;8.384;2023-06-10T12:52:32;3.00;;;2.70;;
17382;SDS011;8809;51.892;8.384;2023-06-10T12:54:59;3.72;;;3.10;;
17382;SDS011;8809;51.892;8.384;2023-06-10T12:57:26;3.00;;;2.70;;
17382;SDS011;8809;51.892;8.384;2023-06-10T12:59:56;3.10;;;2.60;;
17382;SDS011;8809;51.892;8.384;2023-06-10T13:02:29;3.00;;;2.70;;
17382;SDS011;8809;51.892;8.384;2023-06-10T13:04:57;3.22;;;2.72;;
17382;SDS011;8809;51.892;8.384;2023-06-10T13:07:25;3.25;;;2.80;;
17382;SDS011;8809;51.892;8.384;2023-06-10T13:09:52;3.40;;;3.10;;
17382;SDS011;8809;51.892;8.384;2023-06-10T13:12:20;3.22;;;2.92;;
17382;SDS011;8809;51.892;8.384;2023-06-10T13:14:48;4.15;;;3.40;;
17382;SDS011;8809;51.892;8.384;2023-06-10T13:17:15;3.30;;;3.00;;
17382;SDS011;8809;51.892;8.384;2023-06-10T13:19:42;2.90;;;2.60;;
17382;SDS011;8809;51.892;8.384;2023-06-10T13:22:09;3.25;;;2.95;;
17382;SDS011;8809;51.892;8.384;2023-06-10T13:24:40;2.75;;;2.55;;
17382;SDS011;8809;51.892;8.384;2023-06-10T13:27:09;3.05;;;2.72;;
17382;SDS011;8809;51.892;8.384;2023-06-10T13:29:37;3.85;;;2.97;;
17382;SDS011;8809;51.892;8.384;2023-06-10T13:32:04;3.30;;;3.00;;
17382;SDS011;8809;51.892;8.384;2023-06-10T13:34:33;2.95;;;2.70;;
17382;SDS011;8809;51.892;8.384;2023-06-10T13:36:59;3.15;;;2.85;;
17382;SDS011;8809;51.892;8.384;2023-06-10T13:39:26;3.17;;;2.88;;
17382;SDS011;8809;51.892;8.384;2023-06-10T13:41:55;3.80;;;2.65;;
17382;SDS011;8809;51.892;8.384;2023-06-10T13:44:22;3.00;;;2.75;;
17382;SDS011;8809;51.892;8.384;2023-06-10T13:46:52;3.00;;;2.70;;
17382;SDS011;8809;51.892;8.384;2023-06-10T13:49:19;2.58;;;2.38;;
17382;SDS011;8809;51.892;8.384;2023-06-10T13:51:49;3.00;;;2.70;;
17382;SDS011;8809;51.892;8.384;2023-06-10T13:54:16;3.03;;;2.80;;
17382;SDS011;8809;51.892;8.384;2023-06-10T13:56:43;3.17;;;2.88;;
17382;SDS011;8809;51.892;8.384;2023-06-10T13:59:11;2.60;;;2.40;;
17382;SDS011;8809;51.892;8.384;2023-06-10T14:01:38;2.90;;;2.70;;
17382;SDS011;8809;51.892;8.384;2023-06-10T14:04:05;3.05;;;2.75;;
17382;SDS011;8809;51.892;8.384;2023-06-10T14:06:32;2.97;;;2.78;;
17382;SDS011;8809;51.892;8.384;2023-06-10T14:08:59;2.80;;;2.60;;
17382;SDS011;8809;51.892;8.384;2023-06-10T14:11:26;3.05;;;2.78;;
17382;SDS011;8809;51.892;8.384;2023-06-10T14:13:54;3.20;;;2.90;;
17382;SDS011;8809;51.892;8.384;2023-06-10T14:16:23;3.50;;;3.20;;
17382;SDS011;8809;51.892;8.384;2023-06-10T14:18:50;3.08;;;2.78;;
17382;SDS011;8809;51.892;8.384;2023-06-10T14:21:17;3.03;;;2.83;;
17382;SDS011;8809;51.892;8.384;2023-06-10T14:23:44;3.30;;;3.00;;
17382;SDS011;8809;51.892;8.384;2023-06-10T14:26:15;3.45;;;3.15;;
17382;SDS011;8809;51.892;8.384;2023-06-10T14:28:42;3.17;;;2.88;;
17382;SDS011;8809;51.892;8.384;2023-06-10T14:31:09;3.47;;;3.17;;
17382;SDS011;8809;51.892;8.384;2023-06-10T14:33:40;3.50;;;3.20;;
17382;SDS011;8809;51.892;8.384;2023-06-10T14:36:09;3.08;;;2.78;;
17382;SDS011;8809;51.892;8.384;2023-06-10T14:38:36;3.05;;;2.83;;
17382;SDS011;8809;51.892;8.384;2023-06-10T14:41:06;3.38;;;3.08;;
17382;SDS011;8809;51.892;8.384;2023-06-10T14:43:33;3.38;;;3.08;;
17382;SDS011;8809;51.892;8.384;2023-06-10T14:46:05;3.05;;;2.78;;
17382;SDS011;8809;51.892;8.384;2023-06-10T14:48:32;3.42;;;2.90;;
17382;SDS011;8809;51.892;8.384;2023-06-10T14:51:01;3.53;;;3.22;;
17382;SDS011;8809;51.892;8.384;2023-06-10T14:53:29;3.25;;;2.95;;
17382;SDS011;8809;51.892;8.384;2023-06-10T14:55:56;3.10;;;2.90;;
17382;SDS011;8809;51.892;8.384;2023-06-10T14:58:23;3.42;;;3.13;;
17382;SDS011;8809;51.892;8.384;2023-06-10T15:00:50;3.08;;;2.88;;
17382;SDS011;8809;51.892;8.384;2023-06-10T15:03:17;2.97;;;2.78;;
17382;SDS011;8809;51.892;8.384;2023-06-10T15:05:44;3.72;;;3.42;;
17382;SDS011;8809;51.892;8.384;2023-06-10T15:08:13;3.70;;;3.30;;
17382;SDS011;8809;51.892;8.384;2023-06-10T15:10:40;3.75;;;3.45;;
17382;SDS011;8809;51.892;8.384;2023-06-10T15:13:07;3.30;;;3.00;;
17382;SDS011;8809;51.892;8.384;2023-06-10T15:15:34;3.53;;;3.22;;